Time;durP1;ratioP1;P1;durP2;ratioP2;P2;SDS_P1;SDS_P2;PMS_P1;PMS_P2;Temp;Humidity;BMP_temperature;BMP_pressure;BME280_temperature;BME280_humidity;BME280_pressure;Samples;Min_cycle;Max_cycle;Signal;HPM_P1;HPM_P2
2024/02/19 00:01:25;;;;;;;18.55;3.65;;;;;;;;;;5020152;28;20374;-75
2024/02/19 00:03:51;;;;;;;16.45;3.35;;;;;;;;;;5037497;28;20575;-75
2024/02/19 00:06:16;;;;;;;13.63;3.25;;;;;;;;;;5041892;28;20192;-74
2024/02/19 00:08:42;;;;;;;18.58;2.60;;;;;;;;;;5036022;28;20213;-73
2024/02/19 00:11:07;;;;;;;18.15;3.15;;;;;;;;;;5028381;28;20194;-74
2024/02/19 00:13:33;;;;;;;13.93;2.10;;;;;;;;;;5031255;28;20192;-74
2024/02/19 00:15:58;;;;;;;14.52;2.10;;;;;;;;;;5030019;28;20186;-74
2024/02/19 00:18:24;;;;;;;22.95;2.72;;;;;;;;;;5047374;28;20591;-74
2024/02/19 00:20:49;;;;;;;14.65;2.05;;;;;;;;;;5031944;28;20194;-74
2024/02/19 00:23:14;;;;;;;12.25;2.00;;;;;;;;;;5032253;28;20185;-74
2024/02/19 00:25:40;;;;;;;22.33;2.65;;;;;;;;;;5038386;28;20198;-74
2024/02/19 00:28:06;;;;;;;19.63;2.22;;;;;;;;;;5030080;28;20210;-75
2024/02/19 00:30:31;;;;;;;12.25;1.85;;;;;;;;;;5040059;28;20190;-74
2024/02/19 00:32:56;;;;;;;10.82;2.83;;;;;;;;;;5039563;28;20255;-74
2024/02/19 00:35:22;;;;;;;11.38;1.70;;;;;;;;;;5028488;28;20252;-74
2024/02/19 00:37:49;;;;;;;15.25;2.33;;;;;;;;;;5028052;28;20213;-74
2024/02/19 00:40:15;;;;;;;17.75;2.35;;;;;;;;;;5037452;28;20517;-74
2024/02/19 00:42:40;;;;;;;15.35;1.67;;;;;;;;;;5047503;28;20221;-74
2024/02/19 00:45:06;;;;;;;15.00;2.03;;;;;;;;;;5045414;28;20189;-75
2024/02/19 00:47:31;;;;;;;18.05;1.88;;;;;;;;;;5028202;28;20264;-74
2024/02/19 00:49:57;;;;;;;10.75;1.90;;;;;;;;;;5024691;28;20194;-75
2024/02/19 00:52:22;;;;;;;14.85;1.25;;;;;;;;;;5034383;28;20236;-74
2024/02/19 00:54:48;;;;;;;8.80;1.35;;;;;;;;;;5038131;28;20240;-74
2024/02/19 00:57:13;;;;;;;16.05;2.05;;;;;;;;;;5039957;28;20255;-74
2024/02/19 00:59:38;;;;;;;8.23;1.73;;;;;;;;;;5029470;28;20546;-74
2024/02/19 01:02:04;;;;;;;9.80;1.33;;;;;;;;;;5030975;28;20285;-74
2024/02/19 01:04:29;;;;;;;9.02;1.33;;;;;;;;;;5023923;28;20331;-74
2024/02/19 01:06:55;;;;;;;7.15;0.75;;;;;;;;;;5032597;28;20190;-75
2024/02/19 01:09:20;;;;;;;13.20;1.50;;;;;;;;;;5040380;28;20197;-75
2024/02/19 01:11:46;;;;;;;10.93;1.77;;;;;;;;;;5028112;28;20190;-74
2024/02/19 01:14:11;;;;;;;9.98;2.00;;;;;;;;;;5045992;28;20338;-73
2024/02/19 01:16:37;;;;;;;8.55;1.33;;;;;;;;;;5046932;28;20185;-75
2024/02/19 01:19:02;;;;;;;11.88;1.85;;;;;;;;;;5029265;28;20333;-74
2024/02/19 01:21:27;;;;;;;9.25;2.05;;;;;;;;;;5040462;28;20675;-74
2024/02/19 01:23:53;;;;;;;8.57;2.17;;;;;;;;;;5041732;28;20197;-74
2024/02/19 01:26:20;;;;;;;11.98;1.83;;;;;;;;;;5022784;28;20228;-72
2024/02/19 01:28:46;;;;;;;9.82;1.35;;;;;;;;;;5032600;28;20213;-74
2024/02/19 01:31:12;;;;;;;14.05;1.63;;;;;;;;;;5050805;28;20196;-73
2024/02/19 01:33:38;;;;;;;12.82;1.95;;;;;;;;;;5039261;28;20490;-74
2024/02/19 01:36:04;;;;;;;10.63;2.92;;;;;;;;;;5034781;28;20198;-74
2024/02/19 01:38:30;;;;;;;15.25;2.17;;;;;;;;;;5039227;28;20205;-74
2024/02/19 01:40:55;;;;;;;18.20;2.00;;;;;;;;;;5037362;28;20202;-74
2024/02/19 01:43:22;;;;;;;13.32;2.58;;;;;;;;;;5030576;28;20206;-74
2024/02/19 01:45:47;;;;;;;11.50;1.90;;;;;;;;;;5044100;28;20190;-75
2024/02/19 01:48:14;;;;;;;18.10;1.98;;;;;;;;;;5036553;28;20216;-74
2024/02/19 01:50:40;;;;;;;11.25;1.60;;;;;;;;;;5033469;28;20233;-74
2024/02/19 01:53:08;;;;;;;12.02;1.77;;;;;;;;;;5038233;28;20324;-73
2024/02/19 01:55:35;;;;;;;12.40;1.90;;;;;;;;;;5037172;28;20226;-74
2024/02/19 01:58:01;;;;;;;14.45;2.00;;;;;;;;;;5032039;28;20742;-74
2024/02/19 02:00:28;;;;;;;9.88;1.70;;;;;;;;;;5033852;28;20258;-74
2024/02/19 02:02:54;;;;;;;13.07;1.52;;;;;;;;;;5038922;28;20197;-74
2024/02/19 02:05:20;;;;;;;15.90;1.75;;;;;;;;;;5030983;28;20515;-74
2024/02/19 02:07:45;;;;;;;12.18;1.90;;;;;;;;;;5040307;28;20217;-73
2024/02/19 02:10:11;;;;;;;8.27;1.48;;;;;;;;;;5030838;28;20239;-73
2024/02/19 02:12:37;;;;;;;9.90;1.23;;;;;;;;;;5032757;28;20178;-73
2024/02/19 02:15:03;;;;;;;16.25;1.70;;;;;;;;;;5034524;28;20692;-73
2024/02/19 02:17:29;;;;;;;13.38;1.77;;;;;;;;;;5049158;28;20307;-76
2024/02/19 02:19:54;;;;;;;15.43;1.85;;;;;;;;;;5034588;28;20343;-73
2024/02/19 02:22:20;;;;;;;13.98;1.98;;;;;;;;;;5011713;28;20277;-73
2024/02/19 02:24:45;;;;;;;17.13;2.00;;;;;;;;;;5033697;28;20201;-74
2024/02/19 02:27:11;;;;;;;12.15;2.00;;;;;;;;;;5027585;28;20211;-73
2024/02/19 02:29:37;;;;;;;14.27;2.22;;;;;;;;;;5029044;28;20232;-73
2024/02/19 02:32:03;;;;;;;6.50;2.05;;;;;;;;;;5027154;28;20187;-73
2024/02/19 02:34:29;;;;;;;16.63;1.85;;;;;;;;;;5022236;28;20230;-73
2024/02/19 02:36:54;;;;;;;14.55;1.77;;;;;;;;;;5043463;28;20649;-74
2024/02/19 02:39:19;;;;;;;12.45;1.60;;;;;;;;;;5034449;28;20193;-74
2024/02/19 02:41:45;;;;;;;15.70;1.77;;;;;;;;;;5036571;28;20666;-74
2024/02/19 02:44:10;;;;;;;14.60;2.03;;;;;;;;;;5026688;28;20193;-74
2024/02/19 02:46:36;;;;;;;15.48;3.40;;;;;;;;;;5037501;28;20580;-73
2024/02/19 02:49:01;;;;;;;11.50;2.80;;;;;;;;;;5028168;28;20287;-73
2024/02/19 02:51:26;;;;;;;12.93;2.92;;;;;;;;;;5028840;28;20523;-73
2024/02/19 02:53:52;;;;;;;20.58;2.65;;;;;;;;;;5035151;28;20195;-73
2024/02/19 02:56:21;;;;;;;15.30;4.55;;;;;;;;;;5033316;28;20194;-73
2024/02/19 02:58:48;;;;;;;22.87;6.47;;;;;;;;;;5020649;28;20186;-73
2024/02/19 03:01:18;;;;;;;23.50;8.27;;;;;;;;;;5027023;28;20201;-74
2024/02/19 03:03:43;;;;;;;24.70;9.52;;;;;;;;;;5037748;28;20189;-74
2024/02/19 03:06:10;;;;;;;17.98;7.15;;;;;;;;;;5034405;28;20190;-73
2024/02/19 03:08:35;;;;;;;13.07;5.00;;;;;;;;;;5031810;28;20209;-73
2024/02/19 03:11:01;;;;;;;14.70;2.88;;;;;;;;;;5033952;28;20573;-73
2024/02/19 03:13:26;;;;;;;13.32;1.90;;;;;;;;;;5032466;28;20189;-74
2024/02/19 03:15:51;;;;;;;14.30;2.05;;;;;;;;;;5043750;28;20206;-75
2024/02/19 03:18:17;;;;;;;11.70;1.90;;;;;;;;;;4987181;28;1109045;-73
2024/02/19 03:20:42;;;;;;;17.70;1.70;;;;;;;;;;5030607;28;20201;-73
2024/02/19 03:23:08;;;;;;;11.57;1.40;;;;;;;;;;5028052;28;20272;-74
2024/02/19 03:25:33;;;;;;;19.13;1.80;;;;;;;;;;5049858;28;20185;-74
2024/02/19 03:27:58;;;;;;;16.42;1.73;;;;;;;;;;5036682;28;20653;-74
2024/02/19 03:30:24;;;;;;;13.13;1.55;;;;;;;;;;5042656;28;20272;-74
2024/02/19 03:32:49;;;;;;;10.00;1.45;;;;;;;;;;5039303;28;20276;-74
2024/02/19 03:35:15;;;;;;;12.48;1.70;;;;;;;;;;5048448;28;20182;-74
2024/02/19 03:37:40;;;;;;;13.43;1.98;;;;;;;;;;5040986;28;20592;-74
2024/02/19 03:40:08;;;;;;;13.82;1.83;;;;;;;;;;5028057;28;20332;-74
2024/02/19 03:42:34;;;;;;;16.77;1.35;;;;;;;;;;5026201;28;20194;-74
2024/02/19 03:44:59;;;;;;;15.15;1.55;;;;;;;;;;5019244;28;20221;-74
2024/02/19 03:47:25;;;;;;;13.43;1.52;;;;;;;;;;5027104;28;20301;-74
2024/02/19 03:49:50;;;;;;;15.82;1.90;;;;;;;;;;5016597;28;20229;-74
2024/02/19 03:52:17;;;;;;;15.93;2.03;;;;;;;;;;5041391;28;20551;-74
2024/02/19 03:54:42;;;;;;;18.00;1.73;;;;;;;;;;5038263;28;20189;-74
2024/02/19 03:57:09;;;;;;;15.13;2.13;;;;;;;;;;5047537;28;20280;-74
2024/02/19 03:59:34;;;;;;;15.52;2.58;;;;;;;;;;5037807;28;20182;-74
2024/02/19 04:02:00;;;;;;;10.82;1.65;;;;;;;;;;5034865;28;20710;-74
2024/02/19 04:04:26;;;;;;;14.10;1.63;;;;;;;;;;5033717;28;20184;-74
2024/02/19 04:06:51;;;;;;;19.30;1.85;;;;;;;;;;5004870;28;20197;-74
2024/02/19 04:09:17;;;;;;;16.40;1.73;;;;;;;;;;5026561;28;20206;-74
2024/02/19 04:11:42;;;;;;;13.57;1.67;;;;;;;;;;5036303;28;20188;-74
2024/02/19 04:14:08;;;;;;;18.52;2.00;;;;;;;;;;5017018;28;20190;-74
2024/02/19 04:16:33;;;;;;;20.38;2.03;;;;;;;;;;5032940;28;20185;-74
2024/02/19 04:18:58;;;;;;;15.35;1.92;;;;;;;;;;5041594;28;20240;-74
2024/02/19 04:21:24;;;;;;;16.38;1.83;;;;;;;;;;5041649;28;20178;-74
2024/02/19 04:23:49;;;;;;;18.50;2.17;;;;;;;;;;5034724;28;20620;-74
2024/02/19 04:26:15;;;;;;;17.00;2.13;;;;;;;;;;5029149;28;20221;-74
2024/02/19 04:28:40;;;;;;;22.63;2.65;;;;;;;;;;5028645;28;20234;-74
2024/02/19 04:31:05;;;;;;;23.67;2.67;;;;;;;;;;5042531;28;20268;-74
2024/02/19 04:33:31;;;;;;;19.45;2.35;;;;;;;;;;5031347;28;20664;-73
2024/02/19 04:35:56;;;;;;;30.88;3.00;;;;;;;;;;5037654;28;20621;-74
2024/02/19 04:38:22;;;;;;;22.88;3.15;;;;;;;;;;5023919;28;20209;-74
2024/02/19 04:40:47;;;;;;;25.58;3.63;;;;;;;;;;5038079;28;20599;-75
2024/02/19 04:43:13;;;;;;;27.85;2.70;;;;;;;;;;5033045;28;20187;-74
2024/02/19 04:45:38;;;;;;;24.42;3.25;;;;;;;;;;5035065;28;20182;-74
2024/02/19 04:48:04;;;;;;;23.88;4.32;;;;;;;;;;5041827;28;20282;-74
2024/02/19 04:50:29;;;;;;;30.13;3.70;;;;;;;;;;5028678;28;20185;-74
2024/02/19 04:52:55;;;;;;;24.25;3.53;;;;;;;;;;5029192;28;20530;-74
2024/02/19 04:55:21;;;;;;;23.15;3.47;;;;;;;;;;5037432;28;20239;-74
2024/02/19 04:57:46;;;;;;;24.52;2.90;;;;;;;;;;5028657;28;20261;-74
2024/02/19 05:00:12;;;;;;;34.65;4.22;;;;;;;;;;5036615;28;20293;-74
2024/02/19 05:02:38;;;;;;;27.98;3.92;;;;;;;;;;5026951;28;20185;-74
2024/02/19 05:05:03;;;;;;;29.17;3.25;;;;;;;;;;5030241;28;20508;-75
2024/02/19 05:07:30;;;;;;;27.50;3.00;;;;;;;;;;5048806;28;20205;-75
2024/02/19 05:09:55;;;;;;;30.35;3.72;;;;;;;;;;5031538;28;20188;-74
2024/02/19 05:12:21;;;;;;;32.03;3.70;;;;;;;;;;5036321;28;20194;-74
2024/02/19 05:14:46;;;;;;;25.48;3.95;;;;;;;;;;5025363;28;20189;-74
2024/02/19 05:17:12;;;;;;;34.67;3.67;;;;;;;;;;5031219;28;20220;-74
2024/02/19 05:19:37;;;;;;;24.60;3.10;;;;;;;;;;5037897;28;20703;-74
2024/02/19 05:22:03;;;;;;;29.33;3.67;;;;;;;;;;5026469;28;20182;-74
2024/02/19 05:24:28;;;;;;;22.67;3.28;;;;;;;;;;5029460;28;20182;-74
2024/02/19 05:26:54;;;;;;;34.28;3.60;;;;;;;;;;5036995;28;20244;-74
2024/02/19 05:29:19;;;;;;;26.00;3.63;;;;;;;;;;5028446;28;20218;-74
2024/02/19 05:31:45;;;;;;;24.30;3.45;;;;;;;;;;5023500;28;20613;-74
2024/02/19 05:34:11;;;;;;;29.88;3.35;;;;;;;;;;5030802;28;20201;-74
2024/02/19 05:36:36;;;;;;;29.45;3.97;;;;;;;;;;5038566;28;20417;-74
2024/02/19 05:39:02;;;;;;;27.05;4.18;;;;;;;;;;5036586;28;20341;-74
2024/02/19 05:41:27;;;;;;;31.95;4.10;;;;;;;;;;5044400;28;20220;-74
2024/02/19 05:43:53;;;;;;;30.92;4.72;;;;;;;;;;5020473;28;20188;-74
2024/02/19 05:46:19;;;;;;;33.25;5.30;;;;;;;;;;5038889;28;20282;-74
2024/02/19 05:48:45;;;;;;;32.65;4.57;;;;;;;;;;5044838;28;20557;-74
2024/02/19 05:51:11;;;;;;;24.95;4.13;;;;;;;;;;5035622;28;20186;-74
2024/02/19 05:53:37;;;;;;;32.25;4.10;;;;;;;;;;5039958;28;20200;-74
2024/02/19 05:56:08;;;;;;;33.15;4.32;;;;;;;;;;5032848;28;20553;-74
2024/02/19 05:58:33;;;;;;;32.20;4.25;;;;;;;;;;5042899;28;20202;-74
2024/02/19 06:00:59;;;;;;;31.02;4.57;;;;;;;;;;5040743;28;20193;-75
2024/02/19 06:03:26;;;;;;;37.75;5.13;;;;;;;;;;5028094;28;20239;-74
2024/02/19 06:05:51;;;;;;;36.20;5.45;;;;;;;;;;5026812;28;20273;-74
2024/02/19 06:08:17;;;;;;;31.30;5.22;;;;;;;;;;5035065;28;20297;-75
2024/02/19 06:10:45;;;;;;;35.50;4.70;;;;;;;;;;5041638;28;20197;-75
2024/02/19 06:13:14;;;;;;;35.25;5.53;;;;;;;;;;5032485;28;20190;-74
2024/02/19 06:15:42;;;;;;;26.17;5.88;;;;;;;;;;5033142;28;20182;-74
2024/02/19 06:18:07;;;;;;;30.45;4.75;;;;;;;;;;5035675;28;20303;-74
2024/02/19 06:20:34;;;;;;;31.83;5.18;;;;;;;;;;5050878;28;20668;-74
2024/02/19 06:22:59;;;;;;;32.55;6.25;;;;;;;;;;5034941;28;20252;-74
2024/02/19 06:25:25;;;;;;;28.45;6.78;;;;;;;;;;5038268;28;20610;-74
2024/02/19 06:27:50;;;;;;;33.58;7.57;;;;;;;;;;5034372;28;20202;-74
2024/02/19 06:30:17;;;;;;;38.53;7.47;;;;;;;;;;5040832;28;20197;-75
2024/02/19 06:32:42;;;;;;;36.78;7.50;;;;;;;;;;5030914;28;20522;-74
2024/02/19 06:35:08;;;;;;;44.20;7.63;;;;;;;;;;5031204;28;20243;-74
2024/02/19 06:37:34;;;;;;;27.88;7.57;;;;;;;;;;5020905;28;20181;-74
2024/02/19 06:39:59;;;;;;;37.13;8.35;;;;;;;;;;5046293;28;20739;-75
2024/02/19 06:42:25;;;;;;;33.92;7.38;;;;;;;;;;5022489;28;20197;-74
2024/02/19 06:44:50;;;;;;;38.13;8.32;;;;;;;;;;5029514;28;20198;-73
2024/02/19 06:47:15;;;;;;;35.40;8.05;;;;;;;;;;5035195;28;20189;-73
2024/02/19 06:49:41;;;;;;;40.95;8.65;;;;;;;;;;5044279;28;20669;-75
2024/02/19 06:52:06;;;;;;;42.72;8.38;;;;;;;;;;5048164;28;20640;-75
2024/02/19 06:54:32;;;;;;;39.65;8.82;;;;;;;;;;5032255;28;20216;-75
2024/02/19 06:56:57;;;;;;;34.22;8.07;;;;;;;;;;5044744;28;20209;-75
2024/02/19 06:59:22;;;;;;;36.65;9.07;;;;;;;;;;5032222;28;20297;-75
2024/02/19 07:01:49;;;;;;;36.83;8.18;;;;;;;;;;5039220;28;20186;-75
2024/02/19 07:04:14;;;;;;;33.03;8.50;;;;;;;;;;5028969;28;20208;-75
2024/02/19 07:06:40;;;;;;;41.45;8.98;;;;;;;;;;5043420;28;20190;-75
2024/02/19 07:09:05;;;;;;;36.20;8.68;;;;;;;;;;5035027;28;20309;-75
2024/02/19 07:11:31;;;;;;;40.17;7.57;;;;;;;;;;5031271;28;20196;-75
2024/02/19 07:13:56;;;;;;;28.83;7.78;;;;;;;;;;5044121;28;20199;-75
2024/02/19 07:16:22;;;;;;;35.55;8.20;;;;;;;;;;5036297;28;20202;-75
2024/02/19 07:18:48;;;;;;;48.08;9.23;;;;;;;;;;5045768;28;20635;-75
2024/02/19 07:21:15;;;;;;;46.03;8.55;;;;;;;;;;5029755;28;20273;-75
2024/02/19 07:23:40;;;;;;;38.65;8.25;;;;;;;;;;5029753;28;20189;-75
2024/02/19 07:26:06;;;;;;;42.05;8.85;;;;;;;;;;5049351;28;20193;-75
2024/02/19 07:28:31;;;;;;;50.33;8.85;;;;;;;;;;5043137;28;20252;-75
2024/02/19 07:30:56;;;;;;;48.30;8.00;;;;;;;;;;5028085;28;20193;-75
2024/02/19 07:33:22;;;;;;;36.88;8.18;;;;;;;;;;5033772;28;20686;-75
2024/02/19 07:35:48;;;;;;;38.45;8.68;;;;;;;;;;5029914;28;20235;-75
2024/02/19 07:38:14;;;;;;;35.10;8.13;;;;;;;;;;5039587;28;20238;-75
2024/02/19 07:40:39;;;;;;;31.63;7.35;;;;;;;;;;5027733;28;20595;-75
2024/02/19 07:43:05;;;;;;;40.30;8.88;;;;;;;;;;5029319;28;20205;-75
2024/02/19 07:45:30;;;;;;;37.22;9.05;;;;;;;;;;5033085;28;20188;-75
2024/02/19 07:47:56;;;;;;;24.08;7.68;;;;;;;;;;5012969;28;20206;-75
2024/02/19 07:50:21;;;;;;;35.42;9.25;;;;;;;;;;5034159;28;20186;-75
2024/02/19 07:52:47;;;;;;;37.40;8.48;;;;;;;;;;5030090;28;20221;-75
2024/02/19 07:55:13;;;;;;;39.17;9.18;;;;;;;;;;5027027;28;20201;-75
2024/02/19 07:57:38;;;;;;;38.88;9.77;;;;;;;;;;5031969;28;20304;-75
2024/02/19 08:00:05;;;;;;;39.65;8.85;;;;;;;;;;5041819;28;20319;-75
2024/02/19 08:02:30;;;;;;;42.65;10.48;;;;;;;;;;5035796;28;20202;-75
2024/02/19 08:04:56;;;;;;;37.63;9.43;;;;;;;;;;5030771;28;20255;-75
2024/02/19 08:07:21;;;;;;;32.30;8.70;;;;;;;;;;5024460;28;20209;-75
2024/02/19 08:09:47;;;;;;;47.80;10.85;;;;;;;;;;5028286;28;20186;-75
2024/02/19 08:12:12;;;;;;;35.67;10.32;;;;;;;;;;5042091;28;20311;-75
2024/02/19 08:14:38;;;;;;;39.90;9.00;;;;;;;;;;5040321;28;20217;-75
2024/02/19 08:17:03;;;;;;;35.78;9.38;;;;;;;;;;5031412;28;20200;-75
2024/02/19 08:19:29;;;;;;;39.95;11.00;;;;;;;;;;5046165;28;20221;-75
2024/02/19 08:21:57;;;;;;;37.50;10.05;;;;;;;;;;5033718;28;20186;-75
2024/02/19 08:24:23;;;;;;;35.75;9.70;;;;;;;;;;5029303;28;20182;-75
2024/02/19 08:26:48;;;;;;;39.25;10.32;;;;;;;;;;5032358;28;20545;-75
2024/02/19 08:29:14;;;;;;;39.22;10.82;;;;;;;;;;5025302;28;20720;-75
2024/02/19 08:31:40;;;;;;;41.83;10.60;;;;;;;;;;5014577;28;20302;-75
2024/02/19 08:34:05;;;;;;;44.17;12.05;;;;;;;;;;5046676;28;20186;-75
2024/02/19 08:36:32;;;;;;;31.10;10.63;;;;;;;;;;5033211;28;20706;-75
2024/02/19 08:38:58;;;;;;;41.88;10.35;;;;;;;;;;5035901;28;20186;-75
2024/02/19 08:41:23;;;;;;;28.42;10.25;;;;;;;;;;5030614;28;20331;-75
2024/02/19 08:43:49;;;;;;;31.88;10.45;;;;;;;;;;5032133;28;20187;-75
2024/02/19 08:46:16;;;;;;;37.30;11.25;;;;;;;;;;5025395;28;20239;-75
2024/02/19 08:48:42;;;;;;;37.20;11.65;;;;;;;;;;5031432;28;20205;-75
2024/02/19 08:51:08;;;;;;;34.95;11.45;;;;;;;;;;5045210;28;20262;-76
2024/02/19 08:53:33;;;;;;;33.60;11.48;;;;;;;;;;5028859;28;20186;-76
2024/02/19 08:55:59;;;;;;;35.65;12.10;;;;;;;;;;5030352;28;20247;-76
2024/02/19 08:58:25;;;;;;;27.30;11.27;;;;;;;;;;5014405;28;20190;-76
2024/02/19 09:00:51;;;;;;;32.13;10.57;;;;;;;;;;5027678;28;20228;-75
2024/02/19 09:03:17;;;;;;;36.65;10.32;;;;;;;;;;5038496;28;20194;-75
2024/02/19 09:05:43;;;;;;;28.50;10.10;;;;;;;;;;5035297;28;20210;-76
2024/02/19 09:08:10;;;;;;;28.48;9.75;;;;;;;;;;5039238;28;20212;-75
2024/02/19 09:10:36;;;;;;;36.15;9.77;;;;;;;;;;5038643;28;20207;-76
2024/02/19 09:13:02;;;;;;;27.90;9.75;;;;;;;;;;5027140;28;20281;-75
2024/02/19 09:15:27;;;;;;;26.40;9.77;;;;;;;;;;5029155;28;20515;-75
2024/02/19 09:17:53;;;;;;;25.15;9.05;;;;;;;;;;5040903;28;20229;-75
2024/02/19 09:20:18;;;;;;;34.85;9.82;;;;;;;;;;5028375;28;20201;-75
2024/02/19 09:22:44;;;;;;;29.17;8.27;;;;;;;;;;5014004;28;20204;-75
2024/02/19 09:25:09;;;;;;;23.10;8.27;;;;;;;;;;5030926;28;20204;-75
2024/02/19 09:27:38;;;;;;;26.58;8.48;;;;;;;;;;5028403;28;20277;-75
2024/02/19 09:30:03;;;;;;;25.35;8.68;;;;;;;;;;5026064;28;20185;-75
2024/02/19 09:32:29;;;;;;;23.10;8.35;;;;;;;;;;5040297;28;20545;-75
2024/02/19 09:34:55;;;;;;;28.92;7.50;;;;;;;;;;5032574;28;20541;-76
2024/02/19 09:37:24;;;;;;;32.50;7.63;;;;;;;;;;5026831;28;20553;-76
2024/02/19 09:39:52;;;;;;;29.23;8.10;;;;;;;;;;5027730;28;20182;-76
2024/02/19 09:42:18;;;;;;;25.13;7.55;;;;;;;;;;5042107;28;20242;-76
2024/02/19 09:44:44;;;;;;;25.08;7.47;;;;;;;;;;5043042;28;20661;-75
2024/02/19 09:47:15;;;;;;;25.77;7.10;;;;;;;;;;5036841;28;20272;-76
2024/02/19 09:49:40;;;;;;;19.20;7.13;;;;;;;;;;5038955;28;20611;-76
2024/02/19 09:52:09;;;;;;;30.00;7.72;;;;;;;;;;5029944;28;20190;-76
2024/02/19 09:54:35;;;;;;;24.15;7.05;;;;;;;;;;5041625;28;20323;-75
2024/02/19 09:57:01;;;;;;;19.02;6.13;;;;;;;;;;5031235;28;20272;-75
2024/02/19 09:59:28;;;;;;;26.38;7.18;;;;;;;;;;5036466;28;20174;-75
2024/02/19 10:01:54;;;;;;;19.42;6.68;;;;;;;;;;5036365;28;20325;-75
2024/02/19 10:04:20;;;;;;;25.45;6.03;;;;;;;;;;5040299;28;20648;-75
2024/02/19 10:06:46;;;;;;;22.60;6.18;;;;;;;;;;5046949;28;20189;-76
2024/02/19 10:09:11;;;;;;;25.50;6.57;;;;;;;;;;5035960;28;20222;-76
2024/02/19 10:11:38;;;;;;;18.45;6.28;;;;;;;;;;5030350;28;20297;-76
2024/02/19 10:14:04;;;;;;;21.52;6.10;;;;;;;;;;5038706;28;20182;-76
2024/02/19 10:16:30;;;;;;;19.50;6.28;;;;;;;;;;5037690;28;20646;-76
2024/02/19 10:19:06;;;;;;;20.30;6.70;;;;;;;;;;5028973;28;20275;-76
2024/02/19 10:21:31;;;;;;;24.80;6.97;;;;;;;;;;5016352;28;20278;-76
2024/02/19 10:23:57;;;;;;;21.17;7.00;;;;;;;;;;5039768;28;20212;-76
2024/02/19 10:26:22;;;;;;;26.10;7.85;;;;;;;;;;5036227;28;20278;-75
2024/02/19 10:28:52;;;;;;;21.50;6.97;;;;;;;;;;5031527;28;20256;-76
2024/02/19 10:31:19;;;;;;;23.80;7.40;;;;;;;;;;5033481;28;20613;-76
2024/02/19 10:33:44;;;;;;;21.25;8.73;;;;;;;;;;5032233;28;20197;-76
2024/02/19 10:36:10;;;;;;;25.58;8.18;;;;;;;;;;5031860;28;20203;-76
2024/02/19 10:38:36;;;;;;;27.52;8.00;;;;;;;;;;5024591;28;20182;-76
2024/02/19 10:41:02;;;;;;;22.52;7.93;;;;;;;;;;5041459;28;20263;-76
2024/02/19 10:43:28;;;;;;;22.15;7.97;;;;;;;;;;5032780;28;20186;-76
2024/02/19 10:45:54;;;;;;;17.98;7.03;;;;;;;;;;5024284;28;20625;-76
2024/02/19 10:48:20;;;;;;;23.90;7.05;;;;;;;;;;5030860;28;20206;-76
2024/02/19 10:50:50;;;;;;;20.65;7.32;;;;;;;;;;5035946;28;20189;-76
2024/02/19 10:53:18;;;;;;;17.23;7.30;;;;;;;;;;5038941;28;20263;-76
2024/02/19 10:55:45;;;;;;;25.83;8.50;;;;;;;;;;5022742;28;20190;-77
2024/02/19 10:58:18;;;;;;;22.17;7.63;;;;;;;;;;5034181;28;20186;-76
2024/02/19 11:00:44;;;;;;;16.77;6.15;;;;;;;;;;5036499;28;20185;-76
2024/02/19 11:03:13;;;;;;;22.60;5.88;;;;;;;;;;5046651;28;20193;-76
2024/02/19 11:05:42;;;;;;;21.38;7.15;;;;;;;;;;5036913;28;20217;-76
2024/02/19 11:08:22;;;;;;;18.13;6.20;;;;;;;;;;5025529;28;20205;-76
2024/02/19 11:10:49;;;;;;;16.55;6.13;;;;;;;;;;5037807;28;20552;-77
2024/02/19 11:13:18;;;;;;;18.67;5.95;;;;;;;;;;5031510;28;20193;-76
2024/02/19 11:15:44;;;;;;;15.18;5.63;;;;;;;;;;5030047;28;21706;-76
2024/02/19 11:18:17;;;;;;;14.70;5.53;;;;;;;;;;5028274;28;20237;-76
2024/02/19 11:20:43;;;;;;;16.63;5.68;;;;;;;;;;5026117;28;20191;-76
2024/02/19 11:23:09;;;;;;;19.33;5.68;;;;;;;;;;5027126;28;20621;-76
2024/02/19 11:25:35;;;;;;;16.05;6.00;;;;;;;;;;5028674;28;20269;-76
2024/02/19 11:28:02;;;;;;;18.70;5.57;;;;;;;;;;5027915;28;20309;-76
2024/02/19 11:30:29;;;;;;;18.75;5.65;;;;;;;;;;5009534;28;20226;-76
2024/02/19 11:33:05;;;;;;;18.55;5.95;;;;;;;;;;5030045;28;20186;-76
2024/02/19 11:35:33;;;;;;;15.70;5.78;;;;;;;;;;5035118;28;20221;-76
2024/02/19 11:37:59;;;;;;;14.15;5.75;;;;;;;;;;5045265;28;20569;-76
2024/02/19 11:40:31;;;;;;;16.70;6.38;;;;;;;;;;5028786;28;20325;-75
2024/02/19 11:42:59;;;;;;;13.57;6.50;;;;;;;;;;5030069;28;20193;-78
2024/02/19 11:45:25;;;;;;;14.30;6.05;;;;;;;;;;5035505;28;20185;-76
2024/02/19 11:47:51;;;;;;;15.77;6.78;;;;;;;;;;5030195;28;20233;-76
2024/02/19 11:50:21;;;;;;;17.77;6.85;;;;;;;;;;5012372;28;20198;-76
2024/02/19 11:52:46;;;;;;;17.20;6.20;;;;;;;;;;5038856;28;20274;-76
2024/02/19 11:55:29;;;;;;;19.27;6.28;;;;;;;;;;5034284;28;20234;-76
2024/02/19 11:57:55;;;;;;;15.38;6.13;;;;;;;;;;5011718;28;20186;-76
2024/02/19 12:00:22;;;;;;;19.15;6.40;;;;;;;;;;5031753;28;20204;-77
2024/02/19 12:02:48;;;;;;;16.70;5.80;;;;;;;;;;5040244;28;20186;-76
2024/02/19 12:05:18;;;;;;;18.05;6.75;;;;;;;;;;5036261;28;20556;-76
2024/02/19 12:07:44;;;;;;;21.30;7.47;;;;;;;;;;5026927;28;20210;-76
2024/02/19 12:10:10;;;;;;;17.90;6.70;;;;;;;;;;5044479;28;20186;-77
2024/02/19 12:12:39;;;;;;;19.35;7.10;;;;;;;;;;5027505;28;20190;-76
2024/02/19 12:15:13;;;;;;;14.15;6.90;;;;;;;;;;5028937;28;20418;-76
2024/02/19 12:17:40;;;;;;;11.32;6.88;;;;;;;;;;5041748;28;20673;-76
2024/02/19 12:20:08;;;;;;;21.00;7.07;;;;;;;;;;5025184;28;20213;-76
2024/02/19 12:22:34;;;;;;;17.33;7.35;;;;;;;;;;5027665;28;20213;-76
2024/02/19 12:24:59;;;;;;;14.70;7.40;;;;;;;;;;5032493;28;20602;-76
2024/02/19 12:27:25;;;;;;;20.08;7.35;;;;;;;;;;5030362;28;20197;-76
2024/02/19 12:29:52;;;;;;;13.88;7.43;;;;;;;;;;5032608;28;20524;-76
2024/02/19 12:32:19;;;;;;;14.40;6.80;;;;;;;;;;4333705;28;10000818;-77
2024/02/19 12:34:45;;;;;;;15.20;6.80;;;;;;;;;;5039589;28;20197;-76
2024/02/19 12:37:10;;;;;;;18.25;7.57;;;;;;;;;;5037049;28;20696;-76
2024/02/19 12:39:36;;;;;;;15.50;6.93;;;;;;;;;;5037435;28;20250;-76
2024/02/19 12:42:01;;;;;;;17.85;6.85;;;;;;;;;;5028728;28;20544;-76
2024/02/19 12:44:27;;;;;;;16.30;7.22;;;;;;;;;;5044399;28;20694;-74
2024/02/19 12:46:52;;;;;;;18.92;7.72;;;;;;;;;;5036534;28;20197;-74
2024/02/19 12:49:18;;;;;;;21.63;8.05;;;;;;;;;;5037337;28;20210;-75
2024/02/19 12:51:45;;;;;;;23.75;8.25;;;;;;;;;;5026801;28;20328;-75
2024/02/19 12:54:11;;;;;;;22.17;7.68;;;;;;;;;;5030239;28;20269;-76
2024/02/19 12:56:37;;;;;;;16.60;7.43;;;;;;;;;;5027438;28;20281;-78
2024/02/19 12:59:02;;;;;;;17.70;7.45;;;;;;;;;;5011052;28;20562;-75
2024/02/19 13:01:28;;;;;;;19.92;7.63;;;;;;;;;;5031285;28;20235;-75
2024/02/19 13:03:54;;;;;;;21.33;7.50;;;;;;;;;;5035021;28;20200;-75
2024/02/19 13:06:19;;;;;;;14.75;6.82;;;;;;;;;;5041922;28;20210;-75
2024/02/19 13:08:49;;;;;;;14.95;7.30;;;;;;;;;;5042905;28;20220;-75
2024/02/19 13:11:14;;;;;;;17.17;8.35;;;;;;;;;;5008044;28;20237;-75
2024/02/19 13:13:40;;;;;;;19.83;8.18;;;;;;;;;;5031009;28;20629;-75
2024/02/19 13:16:09;;;;;;;20.27;7.13;;;;;;;;;;5039052;28;20185;-75
2024/02/19 13:18:35;;;;;;;14.75;6.55;;;;;;;;;;5039058;28;20225;-76
2024/02/19 13:21:01;;;;;;;17.05;6.63;;;;;;;;;;4990355;28;20293;-75
2024/02/19 13:23:27;;;;;;;16.25;6.28;;;;;;;;;;5034322;28;20273;-75
2024/02/19 13:25:52;;;;;;;12.50;5.63;;;;;;;;;;5043207;28;20255;-76
2024/02/19 13:28:18;;;;;;;15.55;5.90;;;;;;;;;;5038414;28;20217;-75
2024/02/19 13:30:43;;;;;;;16.60;6.32;;;;;;;;;;5022722;28;20622;-75
2024/02/19 13:33:09;;;;;;;15.23;6.65;;;;;;;;;;5026947;28;20189;-75
2024/02/19 13:35:37;;;;;;;14.60;4.90;;;;;;;;;;5041692;28;20645;-76
2024/02/19 13:38:04;;;;;;;13.27;6.00;;;;;;;;;;5042984;28;20239;-75
2024/02/19 13:40:30;;;;;;;18.83;5.60;;;;;;;;;;5022689;28;20201;-75
2024/02/19 13:42:55;;;;;;;12.55;5.20;;;;;;;;;;5049318;28;20189;-76
2024/02/19 13:45:25;;;;;;;11.85;5.07;;;;;;;;;;5029389;28;20190;-75
2024/02/19 13:48:00;;;;;;;17.23;5.07;;;;;;;;;;5019658;28;20209;-75
2024/02/19 13:50:25;;;;;;;16.42;5.13;;;;;;;;;;5031921;28;20193;-74
2024/02/19 13:52:51;;;;;;;14.52;5.25;;;;;;;;;;5036931;28;20190;-75
2024/02/19 13:55:17;;;;;;;13.77;6.03;;;;;;;;;;5030923;28;20251;-75
2024/02/19 13:57:43;;;;;;;16.25;5.60;;;;;;;;;;5048048;28;20284;-75
2024/02/19 14:00:10;;;;;;;17.48;6.07;;;;;;;;;;5037585;28;20213;-75
2024/02/19 14:02:36;;;;;;;12.60;6.38;;;;;;;;;;5041877;28;20205;-75
2024/02/19 14:05:02;;;;;;;15.68;5.70;;;;;;;;;;5033017;28;20234;-75
2024/02/19 14:07:27;;;;;;;17.38;5.72;;;;;;;;;;5043211;28;20197;-75
2024/02/19 14:09:54;;;;;;;12.93;5.60;;;;;;;;;;5043480;28;20192;-75
2024/02/19 14:12:19;;;;;;;19.95;6.00;;;;;;;;;;5020481;28;20647;-75
2024/02/19 14:14:45;;;;;;;19.40;5.95;;;;;;;;;;5029058;28;20273;-75
2024/02/19 14:17:11;;;;;;;14.77;5.97;;;;;;;;;;5030724;28;20198;-75
2024/02/19 14:19:37;;;;;;;14.95;6.53;;;;;;;;;;5037565;28;20241;-75
2024/02/19 14:22:02;;;;;;;21.42;6.55;;;;;;;;;;5039601;28;20214;-75